createdAt,value
2023-01-03T00:00:54.565Z,8.800000191
2023-01-03T00:01:49.938Z,8.800000191
2023-01-03T00:02:57.716Z,8.800000191
2023-01-03T00:03:59.702Z,8.75
2023-01-03T00:05:02.791Z,8.710000038
2023-01-03T00:06:01.051Z,8.659999847
2023-01-03T00:07:04.036Z,8.640000343
2023-01-03T00:07:56.605Z,8.640000343
2023-01-03T00:09:00.543Z,8.609999657
2023-01-03T00:09:59.692Z,8.590000153
2023-01-03T00:10:59.542Z,8.56000042
2023-01-03T00:11:59.242Z,8.56000042
2023-01-03T00:13:03.319Z,8.529999733
2023-01-03T00:14:00.687Z,8.520000458
2023-01-03T00:15:00.474Z,8.510000229
2023-01-03T00:15:56.824Z,8.5
2023-01-03T00:17:01.812Z,8.489999771
2023-01-03T00:17:54.540Z,8.5
2023-01-03T00:18:58.871Z,8.510000229
2023-01-03T00:19:52.245Z,8.510000229
2023-01-03T00:20:51.937Z,8.510000229
2023-01-03T00:21:50.214Z,8.5
2023-01-03T00:23:46.873Z,8.449999809
2023-01-03T00:24:47.252Z,8.409999847
2023-01-03T00:25:47.534Z,8.390000343
2023-01-03T00:26:45.534Z,8.390000343
2023-01-03T00:28:45.653Z,8.399999619
2023-01-03T00:29:47.471Z,8.369999886
2023-01-03T00:30:45.643Z,8.380000114
2023-01-03T00:31:45.677Z,8.380000114
2023-01-03T00:33:36.810Z,8.43999958
2023-01-03T00:34:13.483Z,8.510000229
2023-01-03T00:35:16.849Z,8.529999733
2023-01-03T00:36:16.426Z,8.529999733
2023-01-03T00:38:13.372Z,8.539999962
2023-01-03T00:39:13.636Z,8.5
2023-01-03T00:40:12.863Z,8.449999809
2023-01-03T00:41:12.119Z,8.390000343
2023-01-03T00:42:07.360Z,8.380000114
2023-01-03T00:43:07.259Z,8.340000153
2023-01-03T00:44:09.040Z,8.300000191
2023-01-03T00:45:04.704Z,8.300000191
2023-01-03T00:46:07.660Z,8.289999962
2023-01-03T00:47:11.887Z,8.279999733
2023-01-03T00:48:14.497Z,8.25
2023-01-03T00:49:09.261Z,8.220000267
2023-01-03T00:50:10.093Z,8.220000267
2023-01-03T00:51:09.169Z,8.199999809
2023-01-03T00:52:04.700Z,8.220000267
2023-01-03T00:53:04.045Z,8.199999809
2023-01-03T00:53:58.805Z,8.180000305
2023-01-03T00:55:13.337Z,8.159999847
2023-01-03T00:56:09.599Z,8.149999619
2023-01-03T00:57:15.302Z,8.180000305
2023-01-03T00:58:07.325Z,8.170000076
2023-01-03T00:59:04.105Z,8.159999847
2023-01-03T01:00:03.973Z,8.140000343
2023-01-03T01:01:01.297Z,8.130000114
2023-01-03T01:02:05.316Z,8.149999619
2023-01-03T01:04:04.740Z,8.220000267
2023-01-03T01:05:00.381Z,8.260000229
2023-01-03T01:06:37.761Z,8.479999542
2023-01-03T01:09:20.449Z,8.949999809
2023-01-03T01:09:40.319Z,9
2023-01-03T01:10:37.271Z,9.06000042
2023-01-03T01:11:42.334Z,9.039999962
2023-01-03T01:13:35.641Z,8.899999619
2023-01-03T01:14:34.615Z,8.850000381
2023-01-03T01:15:35.013Z,8.800000191
2023-01-03T01:16:35.733Z,8.720000267
2023-01-03T01:18:43.229Z,8.640000343
2023-01-03T01:19:43.050Z,8.619999886
2023-01-03T01:20:42.004Z,8.579999924
2023-01-03T01:21:37.465Z,8.550000191
2023-01-03T01:22:41.063Z,8.529999733
2023-01-03T01:23:35.657Z,8.5
2023-01-03T01:24:35.280Z,8.460000038
2023-01-03T01:25:35.146Z,8.399999619
2023-01-03T01:26:34.909Z,8.359999657
2023-01-03T01:27:38.241Z,8.409999847
2023-01-03T01:28:31.642Z,8.430000305
2023-01-03T01:29:31.310Z,8.449999809
2023-01-03T01:30:25.516Z,8.449999809
2023-01-03T01:31:25.193Z,8.43999958
2023-01-03T01:32:20.991Z,8.420000076
2023-01-03T01:33:20.790Z,8.369999886
2023-01-03T01:34:14.727Z,8.359999657
2023-01-03T01:35:18.426Z,8.350000381
2023-01-03T01:36:14.812Z,8.329999924
2023-01-03T01:37:19.936Z,8.350000381
2023-01-03T01:38:19.636Z,8.390000343
2023-01-03T01:39:16.555Z,8.359999657
2023-01-03T01:40:18.120Z,8.369999886
2023-01-03T01:41:13.718Z,8.350000381
2023-01-03T01:42:18.280Z,8.359999657
2023-01-03T01:42:20.241Z,8.359999657
2023-01-03T01:43:09.506Z,8.390000343
2023-01-03T01:44:06.688Z,8.43999958
2023-01-03T01:45:08.113Z,8.489999771
2023-01-03T01:46:06.307Z,8.460000038
2023-01-03T01:47:05.633Z,8.449999809
2023-01-03T01:49:04.104Z,8.420000076
2023-01-03T01:49:58.520Z,8.380000114
2023-01-03T01:50:57.864Z,8.369999886
2023-01-03T01:51:59.777Z,8.369999886
2023-01-03T01:53:53.796Z,8.350000381
2023-01-03T01:54:56.530Z,8.350000381
2023-01-03T01:56:03.978Z,8.350000381
2023-01-03T01:58:33.346Z,8.350000381
2023-01-03T01:59:19.189Z,8.329999924
2023-01-03T02:00:14.547Z,8.340000153
2023-01-03T02:01:13.886Z,8.369999886
2023-01-03T02:02:11.862Z,8.409999847
2023-01-03T02:03:16.311Z,8.369999886
2023-01-03T02:04:14.777Z,8.340000153
2023-01-03T02:05:14.111Z,8.329999924
2023-01-03T02:06:14.209Z,8.300000191
2023-01-03T02:07:12.064Z,8.300000191
2023-01-03T02:08:15.765Z,8.279999733
2023-01-03T02:09:11.209Z,8.270000458
2023-01-03T02:10:12.893Z,8.270000458
2023-01-03T02:11:11.179Z,8.25
2023-01-03T02:13:23.257Z,8.239999771
2023-01-03T02:14:04.608Z,8.270000458
2023-01-03T02:15:03.629Z,8.289999962
2023-01-03T02:16:05.195Z,8.319999695
2023-01-03T02:18:00.009Z,8.350000381
2023-01-03T02:18:42.300Z,8.350000381
2023-01-03T02:19:41.678Z,8.369999886
2023-01-03T02:20:42.562Z,8.359999657
2023-01-03T02:23:05.764Z,8.380000114
2023-01-03T02:23:46.473Z,8.369999886
2023-01-03T02:24:44.652Z,8.390000343
2023-01-03T02:25:44.853Z,8.399999619
2023-01-03T02:28:26.736Z,8.380000114
2023-01-03T02:28:53.841Z,8.430000305
2023-01-03T02:29:54.212Z,8.5
2023-01-03T02:30:50.867Z,8.470000267
2023-01-03T02:33:33.301Z,8.520000458
2023-01-03T02:33:56.182Z,8.590000153
2023-01-03T02:34:58.583Z,8.680000305
2023-01-03T02:35:55.893Z,8.729999542
2023-01-03T02:38:20.691Z,8.68999958
2023-01-03T02:39:01.787Z,8.699999809
2023-01-03T02:40:00.936Z,8.649999619
2023-01-03T02:41:00.305Z,8.630000114
2023-01-03T02:43:40.322Z,8.579999924
2023-01-03T02:44:00.840Z,8.600000381
2023-01-03T02:45:01.188Z,8.710000038
2023-01-03T02:46:05.755Z,8.699999809
2023-01-03T02:48:26.952Z,8.680000305
2023-01-03T02:48:59.077Z,8.729999542
2023-01-03T02:50:00.272Z,8.850000381
2023-01-03T02:50:55.895Z,8.869999886
2023-01-03T02:53:29.708Z,8.829999924
2023-01-03T02:54:02.029Z,8.819999695
2023-01-03T02:55:00.234Z,8.840000153
2023-01-03T02:56:01.074Z,8.81000042
2023-01-03T02:58:19.280Z,8.760000229
2023-01-03T02:58:53.108Z,8.800000191
2023-01-03T02:59:52.012Z,8.859999657
2023-01-03T03:00:53.606Z,8.840000153
2023-01-03T03:03:04.365Z,8.850000381
2023-01-03T03:03:59.226Z,8.859999657
2023-01-03T03:05:01.496Z,8.859999657
2023-01-03T03:05:56.880Z,8.800000191
2023-01-03T03:07:06.171Z,8.770000458
2023-01-03T03:08:02.580Z,8.819999695
2023-01-03T03:09:05.956Z,8.829999924
2023-01-03T03:10:02.002Z,8.800000191
2023-01-03T03:11:05.510Z,8.789999962
2023-01-03T03:12:06.300Z,8.729999542
2023-01-03T03:13:07.842Z,8.789999962
2023-01-03T03:14:03.341Z,8.819999695
2023-01-03T03:15:06.355Z,8.779999733
2023-01-03T03:15:58.910Z,8.729999542
2023-01-03T03:18:06.597Z,8.819999695
2023-01-03T03:19:05.189Z,8.880000114
2023-01-03T03:20:09.384Z,8.850000381
2023-01-03T03:21:01.856Z,8.81000042
2023-01-03T03:22:06.237Z,8.789999962
2023-01-03T03:23:02.917Z,8.829999924
2023-01-03T03:24:02.185Z,8.859999657
2023-01-03T03:25:01.371Z,8.819999695
2023-01-03T03:26:03.306Z,8.729999542
2023-01-03T03:27:03.761Z,8.720000267
2023-01-03T03:28:04.689Z,8.770000458
2023-01-03T03:29:02.020Z,8.779999733
2023-01-03T03:30:06.171Z,8.75
2023-01-03T03:31:01.734Z,8.710000038
2023-01-03T03:32:03.767Z,8.659999847
2023-01-03T03:33:04.615Z,8.699999809
2023-01-03T03:33:59.319Z,8.699999809
2023-01-03T03:35:01.939Z,8.649999619
2023-01-03T03:38:40.177Z,9.180000305
2023-01-03T03:39:02.630Z,9.279999733
2023-01-03T03:40:03.357Z,9.329999924
2023-01-03T03:40:58.724Z,9.279999733
2023-01-03T03:42:06.297Z,9.18999958
2023-01-03T03:43:00.784Z,9.18999958
2023-01-03T03:43:57.104Z,9.159999847
2023-01-03T03:45:01.018Z,9.079999924
2023-01-03T03:45:01.301Z,9.079999924
2023-01-03T03:45:53.378Z,9
2023-01-03T03:47:04.474Z,8.930000305
2023-01-03T03:48:09.396Z,8.899999619
2023-01-03T03:49:06.363Z,8.869999886
2023-01-03T03:50:04.693Z,8.850000381
2023-01-03T03:51:00.041Z,8.779999733
2023-01-03T03:53:01.926Z,8.760000229
2023-01-03T03:54:01.602Z,8.770000458
2023-01-03T03:54:57.091Z,8.75
2023-01-03T03:55:59.452Z,8.659999847
2023-01-03T03:57:04.053Z,8.600000381
2023-01-03T03:58:04.631Z,8.630000114
2023-01-03T03:58:58.243Z,8.640000343
2023-01-03T04:00:01.140Z,8.649999619
2023-01-03T04:01:07.138Z,8.609999657
2023-01-03T04:02:09.129Z,8.56000042
2023-01-03T04:03:13.879Z,8.649999619
2023-01-03T04:04:14.788Z,8.659999847
2023-01-03T04:05:06.657Z,8.680000305
2023-01-03T04:06:11.385Z,8.609999657
2023-01-03T04:07:03.964Z,8.590000153
2023-01-03T04:08:05.306Z,8.649999619
2023-01-03T04:08:57.692Z,8.680000305
2023-01-03T04:09:59.508Z,8.68999958
2023-01-03T04:15:57.398Z,9.479999542
2023-01-03T04:16:19.259Z,9.789999962
2023-01-03T04:17:21.782Z,9.859999657
2023-01-03T04:18:22.877Z,9.81000042
2023-01-03T04:19:26.748Z,9.710000038
2023-01-03T04:21:54.984Z,9.399999619
2023-01-03T04:23:55.273Z,9.31000042
2023-01-03T04:24:38.803Z,9.239999771
2023-01-03T04:25:40.751Z,9.159999847
2023-01-03T04:28:16.828Z,8.890000343
2023-01-03T04:29:01.576Z,8.800000191
2023-01-03T04:29:59.601Z,8.710000038
2023-01-03T04:30:57.145Z,8.649999619
2023-01-03T04:32:05.237Z,8.579999924
2023-01-03T04:34:11.894Z,8.56000042
2023-01-03T04:34:55.421Z,8.569999695
2023-01-03T04:40:38.800Z,9.069999695
2023-01-03T04:41:21.039Z,9.329999924
2023-01-03T04:41:29.943Z,9.329999924
2023-01-03T04:42:52.708Z,9.420000076
2023-01-03T04:44:48.967Z,9.479999542
2023-01-03T04:47:22.230Z,9.149999619
2023-01-03T04:48:08.992Z,9.06000042
2023-01-03T04:53:22.330Z,9.159999847
2023-01-03T04:53:49.213Z,9.31000042
2023-01-03T04:57:36.661Z,9.039999962
2023-01-03T05:01:52.676Z,9.470000267
2023-01-03T05:05:48.855Z,9.850000381
2023-01-03T05:06:17.032Z,9.75
2023-01-03T05:08:18.644Z,9.579999924
2023-01-03T05:09:01.337Z,9.399999619
2023-01-03T05:09:57.906Z,9.260000229
2023-01-03T05:13:02.163Z,9.050000191
2023-01-03T05:20:09.463Z,9.180000305
2023-01-03T05:20:19.161Z,9.329999924
2023-01-03T05:31:52.780Z,10.06999969
2023-01-03T05:35:08.961Z,10.06999969
2023-01-03T05:41:52.161Z,9.920000076
2023-01-03T05:50:21.451Z,10.26000023
2023-01-03T06:01:52.863Z,10.31000042
2023-01-03T06:11:52.455Z,10.52999973
2023-01-03T06:16:24.785Z,10.53999996
2023-01-03T06:17:25.425Z,10.52999973
2023-01-03T06:18:25.558Z,10.39000034
2023-01-03T06:26:52.793Z,9.869999886
2023-01-03T06:33:47.195Z,10.13000011
2023-01-03T06:49:31.943Z,10.19999981
2023-01-03T06:58:29.151Z,10.22000027
2023-01-03T06:59:09.037Z,10.03999996
2023-01-03T07:11:52.306Z,10.36999989
2023-01-03T07:13:44.728Z,10.35999966
2023-01-03T07:14:48.565Z,10.14999962
2023-01-03T07:15:52.545Z,9.850000381
2023-01-03T07:18:01.491Z,9.409999847
2023-01-03T07:19:00.477Z,9.300000191
2023-01-03T07:20:38.799Z,9.109999657
2023-01-03T07:23:28.543Z,9.100000381
2023-01-03T07:24:08.348Z,9.31000042
2023-01-03T07:25:06.610Z,9.350000381
2023-01-03T07:26:07.321Z,9.239999771
2023-01-03T07:28:08.967Z,9.079999924
2023-01-03T07:29:03.790Z,9.050000191
2023-01-03T07:30:42.388Z,8.93999958
2023-01-03T07:31:22.101Z,8.869999886
2023-01-03T07:32:21.643Z,8.840000153
2023-01-03T07:33:25.928Z,8.909999847
2023-01-03T07:34:21.431Z,8.869999886
2023-01-03T07:37:52.426Z,8.699999809
2023-01-03T07:38:40.128Z,8.840000153
2023-01-03T07:39:37.852Z,8.869999886
2023-01-03T07:40:40.878Z,8.779999733
2023-01-03T07:48:20.197Z,9.81000042
2023-01-03T07:49:00.168Z,9.739999771
2023-01-03T07:54:31.489Z,9.68999958
2023-01-03T07:54:40.441Z,9.840000153
2023-01-03T07:55:41.318Z,9.850000381
2023-01-03T07:57:59.077Z,9.630000114
2023-01-03T07:58:40.887Z,9.640000343
2023-01-03T07:59:40.124Z,9.619999886
2023-01-03T08:00:43.209Z,9.460000038
2023-01-03T08:07:22.556Z,9.770000458
2023-01-03T08:08:02.264Z,9.819999695
2023-01-03T08:09:05.927Z,9.729999542
2023-01-03T08:09:06.377Z,9.729999542
2023-01-03T08:10:02.516Z,9.520000458
2023-01-03T08:13:11.552Z,9.130000114
2023-01-03T08:13:54.897Z,9.210000038
2023-01-03T08:14:55.333Z,9.239999771
2023-01-03T08:15:55.129Z,9.140000343
2023-01-03T08:18:25.754Z,9.079999924
2023-01-03T08:19:11.584Z,9.260000229
2023-01-03T08:20:09.081Z,9.260000229
2023-01-03T08:21:07.937Z,9.119999886
2023-01-03T08:23:29.662Z,9.06000042
2023-01-03T08:25:14.201Z,9.319999695
2023-01-03T08:31:17.913Z,9.840000153
2023-01-03T08:33:49.532Z,10.14000034
2023-01-03T08:34:30.190Z,10.06000042
2023-01-03T08:35:26.331Z,9.920000076
2023-01-03T08:36:22.879Z,9.729999542
2023-01-03T08:38:18.396Z,9.5
2023-01-03T08:42:47.120Z,9.289999962
2023-01-03T08:43:28.842Z,9.350000381
2023-01-03T08:45:54.380Z,9.25
2023-01-03T08:47:04.994Z,9.069999695
2023-01-03T08:48:06.169Z,9.100000381
2023-01-03T08:49:09.770Z,9.100000381
2023-01-03T08:50:48.898Z,9.020000458
2023-01-03T08:53:05.270Z,9.050000191
2023-01-03T08:53:47.404Z,9.229999542
2023-01-03T08:54:44.955Z,9.31000042
2023-01-03T08:55:45.158Z,9.25
2023-01-03T08:58:20.988Z,9.18999958
2023-01-03T08:59:15.677Z,9.180000305
2023-01-03T09:00:23.596Z,9.100000381
2023-01-03T09:01:21.777Z,8.960000038
2023-01-03T09:02:22.815Z,8.930000305
2023-01-03T09:04:44.345Z,8.93999958
2023-01-03T09:05:28.945Z,8.920000076
2023-01-03T09:07:33.202Z,8.890000343
2023-01-03T09:08:14.113Z,8.93999958
2023-01-03T09:09:13.308Z,8.949999809
2023-01-03T09:10:14.754Z,8.920000076
2023-01-03T09:11:12.861Z,8.859999657
2023-01-03T09:14:00.370Z,8.930000305
2023-01-03T09:14:47.678Z,8.949999809
2023-01-03T09:15:47.804Z,8.949999809
2023-01-03T09:17:04.555Z,8.869999886
2023-01-03T09:18:05.353Z,8.899999619
2023-01-03T09:20:21.311Z,8.869999886
2023-01-03T09:21:02.324Z,8.829999924
2023-01-03T09:22:04.620Z,8.819999695
2023-01-03T09:23:04.750Z,8.899999619
2023-01-03T09:24:00.186Z,8.899999619
2023-01-03T09:24:59.883Z,8.869999886
2023-01-03T09:26:50.752Z,8.859999657
2023-01-03T09:26:54.575Z,8.859999657
2023-01-03T09:29:27.727Z,8.909999847
2023-01-03T09:30:09.347Z,8.920000076
2023-01-03T09:31:09.425Z,8.880000114
2023-01-03T09:32:14.154Z,8.859999657
2023-01-03T09:33:13.280Z,8.960000038
2023-01-03T09:34:22.330Z,8.989999771
2023-01-03T09:36:30.338Z,8.989999771
2023-01-03T09:38:13.376Z,9.079999924
2023-01-03T09:39:13.459Z,9.140000343
2023-01-03T09:40:08.759Z,9.039999962
2023-01-03T09:42:36.220Z,9.039999962
2023-01-03T09:43:24.962Z,9.170000076
2023-01-03T09:43:25.616Z,9.170000076
2023-01-03T09:45:38.234Z,9.31000042
2023-01-03T09:46:22.269Z,9.279999733
2023-01-03T09:47:22.581Z,9.229999542
2023-01-03T09:48:25.012Z,9.319999695
2023-01-03T09:49:19.797Z,9.31000042
2023-01-03T09:52:54.098Z,9.329999924
2023-01-03T09:53:37.480Z,9.5
2023-01-03T10:04:39.603Z,11.10000038
2023-01-03T10:05:19.901Z,11.21000004
2023-01-03T10:06:17.243Z,11.06000042
2023-01-03T10:07:19.099Z,10.80000019
2023-01-03T10:08:13.507Z,10.59000015
2023-01-03T10:09:13.875Z,10.31000042
2023-01-03T10:10:13.917Z,10.19999981
2023-01-03T10:10:14.625Z,10.19999981
2023-01-03T10:11:05.835Z,10.05000019
2023-01-03T10:12:07.848Z,9.869999886
2023-01-03T10:13:06.683Z,9.729999542
2023-01-03T10:14:00.520Z,9.600000381
2023-01-03T10:14:59.521Z,9.489999771
2023-01-03T10:15:54.659Z,9.460000038
2023-01-03T10:16:51.453Z,9.359999657
2023-01-03T10:17:49.135Z,9.31000042
2023-01-03T10:18:43.034Z,9.279999733
2023-01-03T10:19:42.517Z,9.229999542
2023-01-03T10:20:40.729Z,9.199999809
2023-01-03T10:23:05.478Z,9.109999657
2023-01-03T10:23:50.631Z,9.140000343
2023-01-03T10:25:02.324Z,9.140000343
2023-01-03T10:25:59.480Z,9.149999619
2023-01-03T10:28:05.089Z,9.170000076
2023-01-03T10:28:47.705Z,9.199999809
2023-01-03T10:29:46.915Z,9.229999542
2023-01-03T10:30:56.572Z,9.220000267
2023-01-03T10:31:00.711Z,9.220000267
2023-01-03T10:31:05.437Z,9.220000267
2023-01-03T10:31:56.973Z,9.229999542
2023-01-03T10:33:54.277Z,9.25
2023-01-03T10:34:55.980Z,9.229999542
2023-01-03T10:35:55.032Z,9.18999958
2023-01-03T10:38:04.717Z,9.170000076
2023-01-03T10:38:52.451Z,9.170000076
2023-01-03T10:38:53.249Z,9.170000076
2023-01-03T10:39:46.332Z,9.229999542
2023-01-03T10:40:42.734Z,9.260000229
2023-01-03T10:41:44.521Z,9.260000229
2023-01-03T10:42:40.667Z,9.25
2023-01-03T10:43:46.666Z,9.220000267
2023-01-03T10:44:47.177Z,9.199999809
2023-01-03T10:45:49.565Z,9.18999958
2023-01-03T10:45:49.909Z,9.18999958
2023-01-03T10:46:44.811Z,9.199999809
2023-01-03T10:47:41.471Z,9.229999542
2023-01-03T10:49:17.103Z,9.239999771
2023-01-03T10:49:25.368Z,9.239999771
2023-01-03T10:49:25.962Z,9.239999771
2023-01-03T10:49:41.357Z,9.279999733
2023-01-03T10:50:43.535Z,9.31000042
2023-01-03T10:53:10.181Z,9.329999924
2023-01-03T10:53:50.166Z,9.31000042
2023-01-03T10:54:50.032Z,9.319999695
2023-01-03T10:55:54.647Z,9.340000153
2023-01-03T10:58:01.572Z,9.340000153
2023-01-03T10:58:48.409Z,9.350000381
2023-01-03T10:59:48.460Z,9.390000343
2023-01-03T11:00:48.480Z,9.359999657
2023-01-03T11:03:04.708Z,9.350000381
2023-01-03T11:03:51.624Z,9.380000114
2023-01-03T11:04:49.776Z,9.409999847
2023-01-03T11:05:06.935Z,9.420000076
2023-01-03T11:06:07.455Z,9.420000076
2023-01-03T11:07:05.582Z,9.449999809
2023-01-03T11:09:04.793Z,9.449999809
2023-01-03T11:09:58.350Z,9.430000305
2023-01-03T11:10:58.361Z,9.390000343
2023-01-03T11:13:01.544Z,9.390000343
2023-01-03T11:13:42.642Z,9.399999619
2023-01-03T11:14:46.645Z,9.380000114
2023-01-03T11:15:47.071Z,9.380000114
2023-01-03T11:18:01.830Z,9.340000153
2023-01-03T11:18:44.748Z,9.350000381
2023-01-03T11:19:44.912Z,9.359999657
2023-01-03T11:20:44.020Z,9.390000343
2023-01-03T11:23:05.663Z,9.380000114
2023-01-03T11:23:51.154Z,9.399999619
2023-01-03T11:24:52.590Z,9.430000305
2023-01-03T11:25:51.522Z,9.380000114
2023-01-03T11:28:16.726Z,9.350000381
2023-01-03T11:28:56.050Z,9.359999657
2023-01-03T11:29:55.436Z,9.390000343
2023-01-03T11:30:53.868Z,9.380000114
2023-01-03T11:33:15.599Z,9.350000381
2023-01-03T11:33:58.121Z,9.369999886
2023-01-03T11:35:22.176Z,9.390000343
2023-01-03T11:35:23.780Z,9.390000343
2023-01-03T11:35:56.556Z,9.43999958
2023-01-03T11:38:23.856Z,9.529999733
2023-01-03T11:39:08.613Z,9.550000191
2023-01-03T11:39:15.343Z,9.550000191
2023-01-03T11:39:19.085Z,9.550000191
2023-01-03T11:40:06.517Z,9.579999924
2023-01-03T11:41:02.314Z,9.619999886
2023-01-03T11:43:19.847Z,9.609999657
2023-01-03T11:44:02.287Z,9.609999657
2023-01-03T11:45:00.317Z,9.600000381
2023-01-03T11:45:59.502Z,9.600000381
2023-01-03T11:48:22.385Z,9.539999962
2023-01-03T11:49:04.883Z,9.520000458
2023-01-03T11:50:06.639Z,9.520000458
2023-01-03T11:51:05.028Z,9.5
2023-01-03T11:53:20.106Z,9.489999771
2023-01-03T11:54:07.645Z,9.510000229
2023-01-03T11:55:08.686Z,9.529999733
2023-01-03T11:56:05.045Z,9.510000229
2023-01-03T11:58:22.839Z,9.5
2023-01-03T11:59:04.240Z,9.489999771
2023-01-03T12:00:01.948Z,9.489999771
2023-01-03T12:01:03.634Z,9.43999958
2023-01-03T12:03:05.517Z,9.409999847
2023-01-03T12:03:47.740Z,9.43999958
2023-01-03T12:04:45.397Z,9.460000038
2023-01-03T12:05:50.168Z,9.399999619
2023-01-03T12:08:05.554Z,9.489999771
2023-01-03T12:09:05.959Z,9.579999924
2023-01-03T12:10:05.403Z,9.600000381
2023-01-03T12:11:06.316Z,9.550000191
2023-01-03T12:13:12.479Z,9.539999962
2023-01-03T12:13:51.959Z,9.579999924
2023-01-03T12:14:51.225Z,9.579999924
2023-01-03T12:15:52.311Z,9.539999962
2023-01-03T12:18:21.013Z,9.539999962
2023-01-03T12:19:04.487Z,9.590000153
2023-01-03T12:19:12.023Z,9.590000153
2023-01-03T12:19:12.702Z,9.590000153
2023-01-03T12:20:01.589Z,9.600000381
2023-01-03T12:21:00.183Z,9.579999924
2023-01-03T12:23:23.234Z,9.600000381
2023-01-03T12:24:02.792Z,9.590000153
2023-01-03T12:25:05.676Z,9.590000153
2023-01-03T12:28:08.675Z,9.520000458
2023-01-03T12:28:49.854Z,9.520000458
2023-01-03T12:29:47.323Z,9.529999733
2023-01-03T12:30:47.119Z,9.520000458
2023-01-03T12:33:03.467Z,9.5
2023-01-03T12:33:46.932Z,9.5
2023-01-03T12:34:44.497Z,9.520000458
2023-01-03T12:35:47.370Z,9.510000229
2023-01-03T12:36:47.052Z,9.489999771
2023-01-03T12:38:20.165Z,9.529999733
2023-01-03T12:39:02.205Z,9.579999924
2023-01-03T12:40:02.604Z,9.590000153
2023-01-03T12:41:07.121Z,9.590000153
2023-01-03T12:42:03.593Z,9.56000042
2023-01-03T12:44:02.957Z,9.520000458
2023-01-03T12:45:02.890Z,9.520000458
2023-01-03T12:45:58.157Z,9.510000229
2023-01-03T12:48:19.442Z,9.520000458
2023-01-03T12:49:06.373Z,9.529999733
2023-01-03T12:50:10.879Z,9.569999695
2023-01-03T12:51:06.114Z,9.529999733
2023-01-03T12:53:06.070Z,9.539999962
2023-01-03T12:53:49.686Z,9.56000042
2023-01-03T12:54:48.855Z,9.56000042
2023-01-03T12:55:48.417Z,9.550000191
2023-01-03T12:56:43.325Z,9.550000191
2023-01-03T12:57:44.242Z,9.550000191
2023-01-03T12:58:44.639Z,9.520000458
2023-01-03T12:59:48.482Z,9.539999962
2023-01-03T13:00:45.150Z,9.550000191
2023-01-03T13:03:06.423Z,9.56000042
2023-01-03T13:03:50.518Z,9.590000153
2023-01-03T13:04:54.347Z,9.619999886
2023-01-03T13:05:49.227Z,9.630000114
2023-01-03T13:08:22.256Z,9.670000076
2023-01-03T13:09:02.621Z,9.680000305
2023-01-03T13:10:03.163Z,9.699999809
2023-01-03T13:10:59.862Z,9.710000038
2023-01-03T13:16:35.560Z,10.18000031
2023-01-03T13:17:16.094Z,10.21000004
2023-01-03T13:18:21.155Z,10.17000008
2023-01-03T13:19:15.669Z,10.10999966
2023-01-03T13:20:18.551Z,10.02999973
2023-01-03T13:21:13.384Z,9.970000267
2023-01-03T13:22:10.041Z,9.890000343
2023-01-03T13:23:09.047Z,9.869999886
2023-01-03T13:24:05.673Z,9.779999733
2023-01-03T13:25:08.528Z,9.75
2023-01-03T13:26:05.034Z,9.729999542
2023-01-03T13:28:16.707Z,9.670000076
2023-01-03T13:28:56.646Z,9.659999847
2023-01-03T13:29:54.105Z,9.659999847
2023-01-03T13:31:04.217Z,9.630000114
2023-01-03T13:33:22.728Z,9.619999886
2023-01-03T13:34:05.138Z,9.619999886
2023-01-03T13:35:08.189Z,9.670000076
2023-01-03T13:36:08.842Z,9.649999619
2023-01-03T13:38:04.709Z,9.649999619
2023-01-03T13:38:44.495Z,9.680000305
2023-01-03T13:39:42.005Z,9.68999958
2023-01-03T13:41:16.705Z,9.68999958
2023-01-03T13:41:17.157Z,9.68999958
2023-01-03T13:43:18.662Z,9.760000229
2023-01-03T13:44:00.665Z,9.81000042
2023-01-03T13:45:01.103Z,9.819999695
2023-01-03T13:46:00.296Z,9.819999695
2023-01-03T13:48:17.700Z,9.789999962
2023-01-03T13:48:58.929Z,9.710000038
2023-01-03T13:49:57.237Z,9.75
2023-01-03T13:50:57.430Z,9.739999771
2023-01-03T13:53:16.973Z,9.75
2023-01-03T13:53:58.267Z,9.789999962
2023-01-03T13:54:57.349Z,9.81000042
2023-01-03T13:55:56.809Z,9.800000191
2023-01-03T13:58:08.087Z,9.819999695
2023-01-03T13:59:03.452Z,9.81000042
2023-01-03T14:00:07.233Z,9.819999695
2023-01-03T14:01:06.522Z,9.789999962
2023-01-03T14:02:08.816Z,9.770000458
2023-01-03T14:03:09.678Z,9.819999695
2023-01-03T14:04:05.969Z,9.880000114
2023-01-03T14:05:10.361Z,9.850000381
2023-01-03T14:06:06.573Z,9.840000153
2023-01-03T14:08:18.346Z,9.800000191
2023-01-03T14:08:59.500Z,9.800000191
2023-01-03T14:09:59.928Z,9.819999695
2023-01-03T14:10:59.699Z,9.789999962
2023-01-03T14:13:24.800Z,9.789999962
2023-01-03T14:14:03.870Z,9.840000153
2023-01-03T14:15:13.192Z,9.840000153
2023-01-03T14:15:23.092Z,9.840000153
2023-01-03T14:15:25.524Z,9.840000153
2023-01-03T14:16:03.066Z,9.850000381
2023-01-03T14:18:19.590Z,9.890000343
2023-01-03T14:19:00.595Z,9.880000114
2023-01-03T14:20:00.754Z,9.880000114
2023-01-03T14:21:00.710Z,9.850000381
2023-01-03T14:23:59.249Z,9.850000381
2023-01-03T14:24:00.115Z,9.850000381
2023-01-03T14:24:02.074Z,9.890000343
2023-01-03T14:24:58.882Z,9.93999958
2023-01-03T14:25:58.560Z,9.949999809
2023-01-03T14:28:21.527Z,9.920000076
2023-01-03T14:29:00.792Z,9.93999958
2023-01-03T14:30:02.885Z,9.949999809
2023-01-03T14:30:58.815Z,9.899999619
2023-01-03T14:33:10.447Z,9.930000305
2023-01-03T14:34:09.630Z,9.960000038
2023-01-03T14:35:08.493Z,9.930000305
2023-01-03T14:36:03.772Z,9.890000343
2023-01-03T14:38:11.145Z,9.899999619
2023-01-03T14:39:19.056Z,9.899999619
2023-01-03T14:40:19.378Z,9.850000381
2023-01-03T14:41:21.668Z,9.819999695
2023-01-03T14:43:23.090Z,9.850000381
2023-01-03T14:44:22.422Z,9.880000114
2023-01-03T14:45:23.797Z,9.840000153
2023-01-03T14:46:21.888Z,9.800000191
2023-01-03T14:48:23.279Z,9.829999924
2023-01-03T14:49:20.989Z,9.859999657
2023-01-03T14:50:16.993Z,9.829999924
2023-01-03T14:51:14.470Z,9.770000458
2023-01-03T14:53:22.936Z,9.800000191
2023-01-03T14:54:15.308Z,9.850000381
2023-01-03T14:55:15.395Z,9.840000153
2023-01-03T14:56:13.678Z,9.81000042
2023-01-03T14:58:17.901Z,9.869999886
2023-01-03T14:59:18.203Z,9.899999619
2023-01-03T15:00:32.098Z,9.869999886
2023-01-03T15:00:33.421Z,9.869999886
2023-01-03T15:01:24.337Z,9.850000381
2023-01-03T15:02:27.191Z,9.850000381
2023-01-03T15:03:24.111Z,9.930000305
2023-01-03T15:04:26.440Z,9.949999809
2023-01-03T15:05:23.836Z,9.909999847
2023-01-03T15:06:22.826Z,9.859999657
2023-01-03T15:07:20.110Z,9.829999924
2023-01-03T15:08:24.117Z,9.909999847
2023-01-03T15:09:21.371Z,9.920000076